createdAt,value
2024-05-09T00:00:31.554Z,1010.59
2024-05-09T00:01:26.836Z,1010.61
2024-05-09T00:02:26.920Z,1010.62
2024-05-09T00:03:26.907Z,1010.62
2024-05-09T00:04:26.790Z,1010.62
2024-05-09T00:05:26.789Z,1010.61
2024-05-09T00:06:26.777Z,1010.60
2024-05-09T00:07:26.768Z,1010.58
2024-05-09T00:08:26.732Z,1010.56
2024-05-09T00:09:26.706Z,1010.54
2024-05-09T00:10:35.024Z,1010.55
2024-05-09T00:11:26.788Z,1010.55
2024-05-09T00:12:26.714Z,1010.55
2024-05-09T00:13:26.672Z,1010.56
2024-05-09T00:14:26.843Z,1010.57
2024-05-09T00:15:26.669Z,1010.58
2024-05-09T00:16:26.642Z,1010.60
2024-05-09T00:17:26.873Z,1010.62
2024-05-09T00:18:26.753Z,1010.64
2024-05-09T00:19:26.706Z,1010.65
2024-05-09T00:20:35.090Z,1010.65
2024-05-09T00:21:26.592Z,1010.64
2024-05-09T00:22:26.589Z,1010.64
2024-05-09T00:23:26.639Z,1010.64
2024-05-09T00:24:26.567Z,1010.64
2024-05-09T00:25:26.572Z,1010.64
2024-05-09T00:26:26.610Z,1010.65
2024-05-09T00:27:26.514Z,1010.65
2024-05-09T00:28:26.513Z,1010.66
2024-05-09T00:29:26.719Z,1010.66
2024-05-09T00:30:33.489Z,1010.64
2024-05-09T00:31:26.542Z,1010.63
2024-05-09T00:32:26.791Z,1010.62
2024-05-09T00:33:26.777Z,1010.61
2024-05-09T00:34:26.567Z,1010.61
2024-05-09T00:35:26.571Z,1010.60
2024-05-09T00:36:26.436Z,1010.59
2024-05-09T00:37:26.416Z,1010.58
2024-05-09T00:38:26.526Z,1010.58
2024-05-09T00:39:26.432Z,1010.58
2024-05-09T00:40:35.599Z,1010.58
2024-05-09T00:41:26.442Z,1010.57
2024-05-09T00:42:26.372Z,1010.55
2024-05-09T00:43:26.349Z,1010.54
2024-05-09T00:44:26.441Z,1010.53
2024-05-09T00:45:26.336Z,1010.52
2024-05-09T00:46:26.349Z,1010.51
2024-05-09T00:47:26.483Z,1010.51
2024-05-09T00:48:26.619Z,1010.51
2024-05-09T00:49:26.522Z,1010.51
2024-05-09T00:50:34.077Z,1010.51
2024-05-09T00:51:26.277Z,1010.51
2024-05-09T00:52:26.292Z,1010.50
2024-05-09T00:53:26.323Z,1010.51
2024-05-09T00:54:28.123Z,1010.51
2024-05-09T00:55:26.229Z,1010.51
2024-05-09T00:56:26.300Z,1010.51
2024-05-09T00:57:26.213Z,1010.50
2024-05-09T00:58:26.239Z,1010.50
2024-05-09T00:59:26.333Z,1010.48
2024-05-09T01:00:31.904Z,1010.47
2024-05-09T01:01:26.227Z,1010.47
2024-05-09T01:02:26.192Z,1010.47
2024-05-09T01:03:26.449Z,1010.46
2024-05-09T01:04:26.162Z,1010.46
2024-05-09T01:05:26.150Z,1010.46
2024-05-09T01:06:26.113Z,1010.46
2024-05-09T01:07:26.091Z,1010.47
2024-05-09T01:08:26.124Z,1010.48
2024-05-09T01:09:26.079Z,1010.48
2024-05-09T01:10:33.549Z,1010.48
2024-05-09T01:11:26.178Z,1010.48
2024-05-09T01:12:26.115Z,1010.47
2024-05-09T01:13:26.051Z,1010.46
2024-05-09T01:14:26.197Z,1010.46
2024-05-09T01:15:26.045Z,1010.45
2024-05-09T01:16:26.027Z,1010.46
2024-05-09T01:17:26.127Z,1010.46
2024-05-09T01:18:26.060Z,1010.46
2024-05-09T01:19:26.205Z,1010.47
2024-05-09T01:20:37.199Z,1010.48
2024-05-09T01:21:26.003Z,1010.49
2024-05-09T01:22:25.972Z,1010.49
2024-05-09T01:23:25.955Z,1010.50
2024-05-09T01:24:25.924Z,1010.49
2024-05-09T01:25:25.909Z,1010.49
2024-05-09T01:26:26.019Z,1010.49
2024-05-09T01:27:25.896Z,1010.50
2024-05-09T01:28:25.886Z,1010.50
2024-05-09T01:29:26.052Z,1010.49
2024-05-09T01:30:33.005Z,1010.48
2024-05-09T01:31:25.867Z,1010.49
2024-05-09T01:32:26.001Z,1010.49
2024-05-09T01:33:26.093Z,1010.48
2024-05-09T01:34:25.831Z,1010.49
2024-05-09T01:35:25.886Z,1010.49
2024-05-09T01:36:25.792Z,1010.49
2024-05-09T01:37:25.774Z,1010.48
2024-05-09T01:38:25.821Z,1010.47
2024-05-09T01:39:25.766Z,1010.46
2024-05-09T01:40:36.109Z,1010.46
2024-05-09T01:41:25.799Z,1010.46
2024-05-09T01:42:25.737Z,1010.45
2024-05-09T01:43:25.737Z,1010.45
2024-05-09T01:44:25.793Z,1010.44
2024-05-09T01:45:25.682Z,1010.44
2024-05-09T01:46:25.711Z,1010.42
2024-05-09T01:47:25.842Z,1010.40
2024-05-09T01:48:25.734Z,1010.39
2024-05-09T01:49:25.754Z,1010.38
2024-05-09T01:50:37.014Z,1010.36
2024-05-09T01:51:25.659Z,1010.35
2024-05-09T01:52:25.648Z,1010.34
2024-05-09T01:53:25.701Z,1010.33
2024-05-09T01:54:25.597Z,1010.32
2024-05-09T01:55:25.581Z,1010.32
2024-05-09T01:56:25.604Z,1010.32
2024-05-09T01:57:25.555Z,1010.32
2024-05-09T01:58:25.552Z,1010.32
2024-05-09T01:59:25.766Z,1010.33
2024-05-09T02:00:34.185Z,1010.33
2024-05-09T02:01:25.531Z,1010.32
2024-05-09T02:02:25.599Z,1010.32
2024-05-09T02:03:25.631Z,1010.32
2024-05-09T02:04:25.803Z,1010.33
2024-05-09T02:05:25.622Z,1010.33
2024-05-09T02:06:25.484Z,1010.33
2024-05-09T02:07:25.452Z,1010.34
2024-05-09T02:08:25.517Z,1010.34
2024-05-09T02:09:25.425Z,1010.35
2024-05-09T02:10:31.965Z,1010.35
2024-05-09T02:11:25.503Z,1010.36
2024-05-09T02:12:25.554Z,1010.36
2024-05-09T02:13:25.399Z,1010.36
2024-05-09T02:14:25.445Z,1010.37
2024-05-09T02:15:25.405Z,1010.37
2024-05-09T02:16:25.366Z,1010.37
2024-05-09T02:17:25.534Z,1010.37
2024-05-09T02:18:25.534Z,1010.37
2024-05-09T02:19:25.462Z,1010.38
2024-05-09T02:20:33.830Z,1010.38
2024-05-09T02:21:25.326Z,1010.39
2024-05-09T02:22:25.304Z,1010.39
2024-05-09T02:23:25.332Z,1010.40
2024-05-09T02:24:25.273Z,1010.40
2024-05-09T02:25:25.261Z,1010.40
2024-05-09T02:26:25.279Z,1010.40
2024-05-09T02:27:25.260Z,1010.40
2024-05-09T02:28:25.239Z,1010.40
2024-05-09T02:29:25.400Z,1010.40
2024-05-09T02:30:35.124Z,1010.41
2024-05-09T02:31:25.203Z,1010.41
2024-05-09T02:32:25.396Z,1010.40
2024-05-09T02:33:25.479Z,1010.41
2024-05-09T02:34:25.298Z,1010.40
2024-05-09T02:35:25.210Z,1010.40
2024-05-09T02:36:25.155Z,1010.40
2024-05-09T02:37:25.151Z,1010.41
2024-05-09T02:38:25.184Z,1010.40
2024-05-09T02:39:25.188Z,1010.39
2024-05-09T02:40:33.364Z,1010.40
2024-05-09T02:41:25.184Z,1010.40
2024-05-09T02:42:25.082Z,1010.40
2024-05-09T02:43:25.084Z,1010.40
2024-05-09T02:44:25.188Z,1010.40
2024-05-09T02:45:25.080Z,1010.40
2024-05-09T02:46:25.076Z,1010.40
2024-05-09T02:47:25.169Z,1010.40
2024-05-09T02:48:25.167Z,1010.40
2024-05-09T02:49:25.079Z,1010.41
2024-05-09T02:50:33.537Z,1010.41
2024-05-09T02:51:25.017Z,1010.41
2024-05-09T02:52:24.975Z,1010.41
2024-05-09T02:53:24.991Z,1010.41
2024-05-09T02:54:24.968Z,1010.40
2024-05-09T02:55:24.980Z,1010.40
2024-05-09T02:56:24.971Z,1010.39
2024-05-09T02:57:24.943Z,1010.39
2024-05-09T02:58:24.913Z,1010.39
2024-05-09T02:59:25.025Z,1010.39
2024-05-09T03:00:34.241Z,1010.39
2024-05-09T03:01:24.907Z,1010.38
2024-05-09T03:02:24.971Z,1010.38
2024-05-09T03:03:25.127Z,1010.38
2024-05-09T03:04:24.891Z,1010.38
2024-05-09T03:05:24.969Z,1010.38
2024-05-09T03:06:24.838Z,1010.38
2024-05-09T03:07:24.825Z,1010.39
2024-05-09T03:08:24.819Z,1010.39
2024-05-09T03:09:24.810Z,1010.39
2024-05-09T03:10:28.631Z,1010.39
2024-05-09T03:11:24.831Z,1010.37
2024-05-09T03:12:24.779Z,1010.37
2024-05-09T03:13:24.731Z,1010.37
2024-05-09T03:14:24.935Z,1010.38
2024-05-09T03:15:24.684Z,1010.38
2024-05-09T03:16:24.680Z,1010.39
2024-05-09T03:17:24.909Z,1010.40
2024-05-09T03:18:24.771Z,1010.40
2024-05-09T03:19:24.778Z,1010.41
2024-05-09T03:20:32.279Z,1010.41
2024-05-09T03:21:24.631Z,1010.40
2024-05-09T03:22:24.692Z,1010.41
2024-05-09T03:23:24.640Z,1010.41
2024-05-09T03:24:24.606Z,1010.42
2024-05-09T03:25:24.609Z,1010.43
2024-05-09T03:26:24.601Z,1010.43
2024-05-09T03:27:24.536Z,1010.45
2024-05-09T03:28:24.524Z,1010.46
2024-05-09T03:29:24.682Z,1010.47
2024-05-09T03:30:31.188Z,1010.47
2024-05-09T03:31:24.519Z,1010.47
2024-05-09T03:32:24.631Z,1010.47
2024-05-09T03:33:24.741Z,1010.46
2024-05-09T03:34:24.512Z,1010.45
2024-05-09T03:35:24.578Z,1010.46
2024-05-09T03:36:24.489Z,1010.46
2024-05-09T03:37:24.435Z,1010.46
2024-05-09T03:38:24.446Z,1010.46
2024-05-09T03:39:24.422Z,1010.46
2024-05-09T03:40:28.917Z,1010.46
2024-05-09T03:41:24.486Z,1010.46
2024-05-09T03:42:24.424Z,1010.46
2024-05-09T03:43:24.664Z,1010.46
2024-05-09T03:44:24.383Z,1010.46
2024-05-09T03:45:24.363Z,1010.46
2024-05-09T03:46:24.355Z,1010.46
2024-05-09T03:47:24.448Z,1010.46
2024-05-09T03:48:24.546Z,1010.47
2024-05-09T03:49:24.753Z,1010.46
2024-05-09T03:50:30.162Z,1010.46
2024-05-09T03:51:24.304Z,1010.47
2024-05-09T03:52:24.274Z,1010.46
2024-05-09T03:53:24.352Z,1010.47
2024-05-09T03:54:24.304Z,1010.47
2024-05-09T03:55:24.296Z,1010.46
2024-05-09T03:56:24.326Z,1010.46
2024-05-09T03:57:24.315Z,1010.45
2024-05-09T03:58:24.216Z,1010.45
2024-05-09T03:59:24.378Z,1010.45
2024-05-09T04:00:31.369Z,1010.45
2024-05-09T04:01:24.308Z,1010.45
2024-05-09T04:02:24.253Z,1010.46
2024-05-09T04:03:24.484Z,1010.47
2024-05-09T04:04:24.175Z,1010.48
2024-05-09T04:05:24.170Z,1010.49
2024-05-09T04:06:24.200Z,1010.50
2024-05-09T04:07:24.141Z,1010.50
2024-05-09T04:08:24.263Z,1010.50
2024-05-09T04:09:24.112Z,1010.50
2024-05-09T04:10:31.027Z,1010.50
2024-05-09T04:11:24.195Z,1010.50
2024-05-09T04:12:24.142Z,1010.49
2024-05-09T04:13:24.060Z,1010.49
2024-05-09T04:14:24.094Z,1010.48
2024-05-09T04:15:24.050Z,1010.48
2024-05-09T04:16:24.054Z,1010.48
2024-05-09T04:17:24.142Z,1010.47
2024-05-09T04:18:24.169Z,1010.47
2024-05-09T04:19:24.166Z,1010.47
2024-05-09T04:20:33.449Z,1010.47
2024-05-09T04:21:23.970Z,1010.47
2024-05-09T04:22:23.960Z,1010.48
2024-05-09T04:23:24.093Z,1010.50
2024-05-09T04:24:23.985Z,1010.51
2024-05-09T04:25:23.938Z,1010.51
2024-05-09T04:26:23.948Z,1010.53
2024-05-09T04:27:23.901Z,1010.54
2024-05-09T04:28:23.932Z,1010.55
2024-05-09T04:29:23.939Z,1010.56
2024-05-09T04:30:34.303Z,1010.57
2024-05-09T04:31:23.883Z,1010.58
2024-05-09T04:32:24.137Z,1010.58
2024-05-09T04:33:24.151Z,1010.59
2024-05-09T04:34:23.947Z,1010.59
2024-05-09T04:35:23.991Z,1010.59
2024-05-09T04:36:23.861Z,1010.59
2024-05-09T04:37:23.836Z,1010.59
2024-05-09T04:38:23.910Z,1010.59
2024-05-09T04:39:23.795Z,1010.59
2024-05-09T04:40:28.485Z,1010.61
2024-05-09T04:41:23.833Z,1010.61
2024-05-09T04:42:23.743Z,1010.62
2024-05-09T04:43:23.742Z,1010.64
2024-05-09T04:44:23.786Z,1010.63
2024-05-09T04:45:23.716Z,1010.64
2024-05-09T04:46:23.706Z,1010.65
2024-05-09T04:47:23.866Z,1010.65
2024-05-09T04:48:23.841Z,1010.65
2024-05-09T04:49:23.929Z,1010.66
2024-05-09T04:50:32.720Z,1010.67
2024-05-09T04:51:23.669Z,1010.68
2024-05-09T04:52:23.651Z,1010.68
2024-05-09T04:53:23.745Z,1010.68
2024-05-09T04:54:33.648Z,1010.68
2024-05-09T04:55:23.612Z,1010.68
2024-05-09T04:56:23.637Z,1010.68
2024-05-09T04:57:23.606Z,1010.67
2024-05-09T04:58:23.612Z,1010.68
2024-05-09T04:59:23.629Z,1010.67
2024-05-09T05:00:32.383Z,1010.66
2024-05-09T05:01:23.612Z,1010.66
2024-05-09T05:02:23.659Z,1010.65
2024-05-09T05:03:23.671Z,1010.65
2024-05-09T05:04:23.518Z,1010.65
2024-05-09T05:05:23.563Z,1010.65
2024-05-09T05:06:23.493Z,1010.66
2024-05-09T05:07:23.477Z,1010.67
2024-05-09T05:08:23.541Z,1010.67
2024-05-09T05:09:23.478Z,1010.67
2024-05-09T05:10:32.915Z,1010.67
2024-05-09T05:11:23.583Z,1010.67
2024-05-09T05:12:23.571Z,1010.67
2024-05-09T05:13:24.259Z,1010.66
2024-05-09T05:14:23.440Z,1010.66
2024-05-09T05:15:23.391Z,1010.65
2024-05-09T05:16:23.387Z,1010.66
2024-05-09T05:17:23.530Z,1010.66
2024-05-09T05:18:23.493Z,1010.67
2024-05-09T05:19:23.449Z,1010.67
2024-05-09T05:20:30.920Z,1010.69
2024-05-09T05:21:23.396Z,1010.69
2024-05-09T05:22:23.343Z,1010.70
2024-05-09T05:23:23.772Z,1010.70
2024-05-09T05:24:23.321Z,1010.70
2024-05-09T05:25:23.299Z,1010.71
2024-05-09T05:26:23.423Z,1010.71
2024-05-09T05:27:23.287Z,1010.70
2024-05-09T05:28:23.335Z,1010.70
2024-05-09T05:29:23.331Z,1010.70
2024-05-09T05:30:29.008Z,1010.70
2024-05-09T05:31:23.252Z,1010.70
2024-05-09T05:32:23.409Z,1010.70
2024-05-09T05:33:23.723Z,1010.69
2024-05-09T05:34:23.194Z,1010.70
2024-05-09T05:35:23.346Z,1010.70
2024-05-09T05:36:23.166Z,1010.71
2024-05-09T05:37:23.168Z,1010.73
2024-05-09T05:38:26.277Z,1010.74
2024-05-09T05:39:23.159Z,1010.76
2024-05-09T05:40:32.155Z,1010.80
2024-05-09T05:41:23.229Z,1010.80
2024-05-09T05:42:23.161Z,1010.82
2024-05-09T05:43:23.135Z,1010.83
2024-05-09T05:44:23.119Z,1010.84
2024-05-09T05:45:23.073Z,1010.85
2024-05-09T05:46:23.085Z,1010.86
2024-05-09T05:47:23.205Z,1010.86
2024-05-09T05:48:23.354Z,1010.86
2024-05-09T05:49:23.233Z,1010.86
2024-05-09T05:50:28.044Z,1010.86
2024-05-09T05:51:23.074Z,1010.86
2024-05-09T05:52:23.033Z,1010.86
2024-05-09T05:53:23.032Z,1010.88
2024-05-09T05:54:23.010Z,1010.89
2024-05-09T05:55:22.990Z,1010.90
2024-05-09T05:56:23.013Z,1010.91
2024-05-09T05:57:22.969Z,1010.93
2024-05-09T05:58:22.933Z,1010.95
2024-05-09T05:59:23.009Z,1010.96
2024-05-09T06:00:29.826Z,1010.97
2024-05-09T06:01:22.953Z,1010.98
2024-05-09T06:02:23.019Z,1010.97
2024-05-09T06:03:23.024Z,1010.97
2024-05-09T06:04:22.877Z,1010.97
2024-05-09T06:05:23.840Z,1010.96
2024-05-09T06:06:22.844Z,1010.96
2024-05-09T06:07:22.863Z,1010.96
2024-05-09T06:08:23.718Z,1010.95
2024-05-09T06:09:22.823Z,1010.94
2024-05-09T06:10:29.603Z,1010.95
2024-05-09T06:11:22.890Z,1010.94
2024-05-09T06:12:22.942Z,1010.93
2024-05-09T06:13:22.778Z,1010.93
2024-05-09T06:14:22.786Z,1010.93
2024-05-09T06:15:22.790Z,1010.93
2024-05-09T06:16:22.737Z,1010.92
2024-05-09T06:17:22.916Z,1010.92
2024-05-09T06:18:23.220Z,1010.92
2024-05-09T06:19:22.824Z,1010.93
2024-05-09T06:20:31.590Z,1010.94
2024-05-09T06:21:22.808Z,1010.94
2024-05-09T06:22:22.669Z,1010.94
2024-05-09T06:23:22.823Z,1010.94
2024-05-09T06:24:22.655Z,1010.95
2024-05-09T06:25:22.654Z,1010.94
2024-05-09T06:26:22.690Z,1010.95
2024-05-09T06:27:22.636Z,1010.95
2024-05-09T06:28:22.607Z,1010.97
2024-05-09T06:29:22.635Z,1010.96
2024-05-09T06:30:30.056Z,1010.98
2024-05-09T06:31:22.577Z,1011.00
2024-05-09T06:32:22.776Z,1011.00
2024-05-09T06:33:22.800Z,1011.01
2024-05-09T06:34:22.848Z,1011.02
2024-05-09T06:35:22.599Z,1011.02
2024-05-09T06:36:22.564Z,1011.01
2024-05-09T06:37:22.512Z,1011.03
2024-05-09T06:38:22.576Z,1011.01
2024-05-09T06:39:22.512Z,1011.01
2024-05-09T06:40:25.900Z,1011.00
2024-05-09T06:41:22.531Z,1011.00
2024-05-09T06:42:22.466Z,1010.99
2024-05-09T06:43:22.452Z,1010.99
2024-05-09T06:44:22.616Z,1010.99
2024-05-09T06:45:22.462Z,1010.99
2024-05-09T06:46:22.417Z,1010.99
2024-05-09T06:47:22.519Z,1010.99
2024-05-09T06:48:22.975Z,1010.99
2024-05-09T06:49:22.542Z,1010.99
2024-05-09T06:50:24.478Z,1010.99
2024-05-09T06:51:22.432Z,1010.99
2024-05-09T06:52:22.412Z,1010.99
2024-05-09T06:53:22.425Z,1010.98
2024-05-09T06:54:22.445Z,1010.98
2024-05-09T06:55:22.373Z,1010.98
2024-05-09T06:56:22.395Z,1010.98
2024-05-09T06:57:22.330Z,1010.99
2024-05-09T06:58:22.321Z,1011.00
2024-05-09T06:59:22.569Z,1011.02
2024-05-09T07:00:30.205Z,1011.04
2024-05-09T07:01:22.528Z,1011.05
2024-05-09T07:02:22.487Z,1011.07
2024-05-09T07:03:22.360Z,1011.07
2024-05-09T07:04:22.369Z,1011.08
2024-05-09T07:05:22.367Z,1011.07
2024-05-09T07:06:22.207Z,1011.08
2024-05-09T07:07:22.197Z,1011.06
2024-05-09T07:08:22.348Z,1011.05
2024-05-09T07:09:22.184Z,1011.03
2024-05-09T07:10:28.875Z,1011.03
2024-05-09T07:11:22.268Z,1010.99
2024-05-09T07:12:22.242Z,1010.96
2024-05-09T07:13:22.137Z,1010.94
2024-05-09T07:14:22.177Z,1010.93
2024-05-09T07:15:22.135Z,1010.93
2024-05-09T07:16:22.120Z,1010.91
2024-05-09T07:17:22.190Z,1010.92
2024-05-09T07:18:22.261Z,1010.91
2024-05-09T07:19:22.180Z,1010.89
2024-05-09T07:20:31.623Z,1010.89
2024-05-09T07:21:22.091Z,1010.87
2024-05-09T07:22:22.054Z,1010.86
2024-05-09T07:23:22.095Z,1010.84
2024-05-09T07:24:22.008Z,1010.83
2024-05-09T07:25:21.995Z,1010.82
2024-05-09T07:26:22.042Z,1010.80
2024-05-09T07:27:22.008Z,1010.79
2024-05-09T07:28:22.024Z,1010.77
2024-05-09T07:29:22.034Z,1010.75
2024-05-09T07:30:27.596Z,1010.74
2024-05-09T07:31:21.938Z,1010.72
2024-05-09T07:32:22.140Z,1010.71
2024-05-09T07:33:23.604Z,1010.70
2024-05-09T07:34:22.046Z,1010.68
2024-05-09T07:35:21.964Z,1010.66
2024-05-09T07:36:21.898Z,1010.65
2024-05-09T07:37:21.884Z,1010.64
2024-05-09T07:38:22.012Z,1010.62
2024-05-09T07:39:21.843Z,1010.61
2024-05-09T07:40:31.561Z,1010.60
2024-05-09T07:41:21.907Z,1010.58
2024-05-09T07:42:21.814Z,1010.59
2024-05-09T07:43:21.816Z,1010.57
2024-05-09T07:44:21.888Z,1010.58
2024-05-09T07:45:40.598Z,1010.58
2024-05-09T07:48:56.508Z,1010.58
2024-05-09T07:52:22.638Z,1010.58
2024-05-09T07:53:42.105Z,1010.56
2024-05-09T07:53:53.399Z,1010.53
2024-05-09T07:54:44.997Z,1010.51
2024-05-09T07:55:45.080Z,1010.49
2024-05-09T07:56:44.997Z,1010.48
2024-05-09T07:57:44.947Z,1010.46
2024-05-09T07:58:44.837Z,1010.45
2024-05-09T07:59:44.830Z,1010.44
2024-05-09T08:00:45.040Z,1010.42
2024-05-09T08:01:45.071Z,1010.43
2024-05-09T08:02:44.851Z,1010.43
2024-05-09T08:03:45.072Z,1010.43
2024-05-09T08:04:44.954Z,1010.45
2024-05-09T08:05:44.848Z,1010.45
2024-05-09T08:06:44.810Z,1010.44
2024-05-09T08:07:44.763Z,1010.43
2024-05-09T08:08:44.779Z,1010.42
2024-05-09T08:09:44.791Z,1010.41
2024-05-09T08:10:44.864Z,1010.42
2024-05-09T08:11:44.852Z,1010.42
2024-05-09T08:12:44.675Z,1010.42
2024-05-09T08:13:44.684Z,1010.39
2024-05-09T08:14:44.719Z,1010.39
2024-05-09T08:15:44.934Z,1010.40
2024-05-09T08:16:44.643Z,1010.40
2024-05-09T08:17:44.702Z,1010.41
2024-05-09T08:18:44.774Z,1010.41
2024-05-09T08:19:44.728Z,1010.41
2024-05-09T08:20:44.653Z,1010.40
2024-05-09T08:21:44.659Z,1010.39
2024-05-09T08:22:44.597Z,1010.38
2024-05-09T08:23:44.580Z,1010.37
2024-05-09T08:24:44.628Z,1010.37
2024-05-09T08:25:44.558Z,1010.36
2024-05-09T08:26:44.575Z,1010.36
2024-05-09T08:27:44.553Z,1010.35
2024-05-09T08:28:44.582Z,1010.35
2024-05-09T08:29:44.691Z,1010.34
2024-05-09T08:30:44.795Z,1010.31
2024-05-09T08:31:44.689Z,1010.28
2024-05-09T08:32:44.609Z,1010.26
2024-05-09T08:33:44.703Z,1010.23
2024-05-09T08:34:44.752Z,1010.24
2024-05-09T08:35:44.504Z,1010.23
2024-05-09T08:36:44.498Z,1010.22
2024-05-09T08:37:44.513Z,1010.19
2024-05-09T08:38:44.457Z,1010.19
2024-05-09T08:39:44.578Z,1010.18
2024-05-09T08:40:44.641Z,1010.18
2024-05-09T08:41:44.413Z,1010.16
2024-05-09T08:42:44.533Z,1010.16
2024-05-09T08:43:44.433Z,1010.15
2024-05-09T08:44:44.375Z,1010.11
2024-05-09T08:45:45.438Z,1010.11
2024-05-09T08:46:44.350Z,1010.09
2024-05-09T08:47:44.434Z,1010.08
2024-05-09T08:48:44.582Z,1010.08
2024-05-09T08:49:44.396Z,1010.08
2024-05-09T08:50:45.347Z,1010.07
2024-05-09T08:51:44.376Z,1010.06
2024-05-09T08:52:44.296Z,1010.07
2024-05-09T08:53:44.273Z,1010.05
2024-05-09T08:54:44.366Z,1010.05
2024-05-09T08:55:44.673Z,1010.05
2024-05-09T08:56:44.264Z,1010.05
2024-05-09T08:57:44.258Z,1010.03
2024-05-09T08:58:44.250Z,1010.03
2024-05-09T08:59:44.210Z,1010.03
2024-05-09T09:00:44.703Z,1010.06
2024-05-09T09:01:44.415Z,1010.04
2024-05-09T09:02:44.645Z,1010.05
2024-05-09T09:03:44.322Z,1010.06
2024-05-09T09:04:44.335Z,1010.05
2024-05-09T09:05:44.226Z,1010.04
2024-05-09T09:06:44.436Z,1010.02
2024-05-09T09:07:44.156Z,1010.02
2024-05-09T09:08:44.129Z,1010.02
2024-05-09T09:09:44.345Z,1010.03
2024-05-09T09:10:44.237Z,1010.01
2024-05-09T09:11:44.193Z,1010.03
2024-05-09T09:12:44.236Z,1010.02
2024-05-09T09:13:44.096Z,1010.02
2024-05-09T09:14:44.145Z,1010.00
2024-05-09T09:15:44.093Z,1009.98
2024-05-09T09:16:44.093Z,1009.99
2024-05-09T09:17:44.206Z,1009.98
2024-05-09T09:18:44.332Z,1010.01
2024-05-09T09:19:44.154Z,1010.00
2024-05-09T09:20:44.227Z,1010.00
2024-05-09T09:21:44.067Z,1010.00
2024-05-09T09:22:44.024Z,1009.99
2024-05-09T09:23:44.022Z,1009.97
2024-05-09T09:24:44.047Z,1009.99
2024-05-09T09:25:43.993Z,1009.97
2024-05-09T09:26:43.970Z,1009.94
2024-05-09T09:27:44.022Z,1009.94
2024-05-09T09:28:43.939Z,1009.92
2024-05-09T09:29:43.970Z,1009.90
2024-05-09T09:30:44.035Z,1009.92
2024-05-09T09:31:43.978Z,1009.90
2024-05-09T09:32:43.992Z,1009.89
2024-05-09T09:33:44.187Z,1009.88
2024-05-09T09:34:43.996Z,1009.95
2024-05-09T09:35:43.959Z,1009.97
2024-05-09T09:36:44.030Z,1009.93
2024-05-09T09:37:43.903Z,1009.95
2024-05-09T09:38:43.934Z,1009.98
2024-05-09T09:39:43.954Z,1009.90
2024-05-09T09:40:48.306Z,1009.98
2024-05-09T09:41:43.956Z,1009.98
2024-05-09T09:42:43.935Z,1009.96
2024-05-09T09:43:43.954Z,1009.97
2024-05-09T09:44:47.771Z,1009.92
2024-05-09T09:45:43.993Z,1009.91
2024-05-09T09:46:43.799Z,1009.86
2024-05-09T09:47:43.911Z,1009.85
2024-05-09T09:48:43.910Z,1009.86
2024-05-09T09:49:43.888Z,1009.87
2024-05-09T09:50:43.766Z,1009.86
2024-05-09T09:51:43.980Z,1009.90
2024-05-09T09:52:43.746Z,1009.89
2024-05-09T09:53:43.964Z,1009.89
2024-05-09T09:54:43.987Z,1009.91
2024-05-09T09:55:43.837Z,1009.94
2024-05-09T09:56:43.765Z,1009.97
2024-05-09T09:57:43.869Z,1009.90
2024-05-09T09:58:43.669Z,1009.85
2024-05-09T09:59:43.801Z,1009.85
2024-05-09T10:00:43.922Z,1009.84
2024-05-09T10:01:43.827Z,1009.83
2024-05-09T10:02:43.826Z,1009.79
2024-05-09T10:03:43.991Z,1009.76
2024-05-09T10:04:44.021Z,1009.80
2024-05-09T10:05:46.332Z,1009.77
2024-05-09T10:06:43.650Z,1009.77
2024-05-09T10:07:43.594Z,1009.75
2024-05-09T10:08:43.589Z,1009.77
2024-05-09T10:09:43.633Z,1009.74
2024-05-09T10:10:43.947Z,1009.76
2024-05-09T10:11:49.155Z,1009.79
2024-05-09T10:12:43.583Z,1009.78
2024-05-09T10:13:43.595Z,1009.78
2024-05-09T10:14:43.576Z,1009.83
2024-05-09T10:15:43.617Z,1009.81
2024-05-09T10:16:43.572Z,1009.79
2024-05-09T10:17:43.641Z,1009.78
2024-05-09T10:18:43.859Z,1009.80
2024-05-09T10:19:43.646Z,1009.83
2024-05-09T10:20:43.921Z,1009.84
2024-05-09T10:21:43.590Z,1009.78
2024-05-09T10:22:43.574Z,1009.81
2024-05-09T10:23:43.589Z,1009.77
2024-05-09T10:24:43.536Z,1009.80
2024-05-09T10:25:43.920Z,1009.78
2024-05-09T10:26:43.512Z,1009.76
2024-05-09T10:27:43.599Z,1009.74
2024-05-09T10:28:43.525Z,1009.75
2024-05-09T10:29:43.436Z,1009.77
2024-05-09T10:30:44.474Z,1009.76
2024-05-09T10:31:43.717Z,1009.82
2024-05-09T10:32:43.490Z,1009.87
2024-05-09T10:33:43.555Z,1009.90
2024-05-09T10:34:43.512Z,1009.91
2024-05-09T10:35:43.457Z,1009.89
2024-05-09T10:36:43.585Z,1009.87
2024-05-09T10:37:43.355Z,1009.79
2024-05-09T10:38:43.479Z,1009.75
2024-05-09T10:39:43.674Z,1009.71
2024-05-09T10:40:43.456Z,1009.71
2024-05-09T10:41:43.308Z,1009.78
2024-05-09T10:42:43.587Z,1009.73
2024-05-09T10:43:43.343Z,1009.71
2024-05-09T10:44:43.273Z,1009.66
2024-05-09T10:45:43.417Z,1009.61
2024-05-09T10:46:43.500Z,1009.57
2024-05-09T10:47:43.396Z,1009.53
2024-05-09T10:48:44.268Z,1009.52
2024-05-09T10:49:43.361Z,1009.49
2024-05-09T10:50:43.285Z,1009.49
2024-05-09T10:51:43.348Z,1009.46
2024-05-09T10:52:43.250Z,1009.50
2024-05-09T10:53:43.826Z,1009.48
2024-05-09T10:54:43.223Z,1009.46
2024-05-09T10:55:43.212Z,1009.49
2024-05-09T10:56:43.236Z,1009.53
2024-05-09T10:57:43.291Z,1009.54
2024-05-09T10:58:43.204Z,1009.56
2024-05-09T10:59:43.147Z,1009.50
2024-05-09T11:00:43.283Z,1009.44
2024-05-09T11:01:43.303Z,1009.46
2024-05-09T11:02:43.368Z,1009.45
2024-05-09T11:03:43.504Z,1009.40
2024-05-09T11:04:43.229Z,1009.40
2024-05-09T11:05:43.488Z,1009.41
2024-05-09T11:06:43.134Z,1009.37
2024-05-09T11:07:43.084Z,1009.37
2024-05-09T11:08:43.082Z,1009.36
2024-05-09T11:09:43.159Z,1009.37
2024-05-09T11:10:43.356Z,1009.40
2024-05-09T11:11:43.155Z,1009.37
2024-05-09T11:12:43.137Z,1009.37
2024-05-09T11:13:43.046Z,1009.39
2024-05-09T11:14:43.145Z,1009.43
2024-05-09T11:15:43.085Z,1009.36
2024-05-09T11:16:43.071Z,1009.38
2024-05-09T11:17:43.198Z,1009.35
2024-05-09T11:18:43.331Z,1009.35
2024-05-09T11:19:43.015Z,1009.36
2024-05-09T11:20:43.021Z,1009.29
2024-05-09T11:21:43.070Z,1009.29
2024-05-09T11:22:42.987Z,1009.33
2024-05-09T11:23:43.000Z,1009.33
2024-05-09T11:24:43.072Z,1009.35
2024-05-09T11:25:42.922Z,1009.32
2024-05-09T11:26:42.912Z,1009.29
2024-05-09T11:27:42.939Z,1009.29
2024-05-09T11:28:42.941Z,1009.29
2024-05-09T11:29:42.895Z,1009.26
2024-05-09T11:30:43.046Z,1009.24
2024-05-09T11:31:42.972Z,1009.27
2024-05-09T11:32:43.073Z,1009.24
2024-05-09T11:33:43.126Z,1009.23
2024-05-09T11:34:43.022Z,1009.24
2024-05-09T11:35:42.865Z,1009.18
2024-05-09T11:36:42.901Z,1009.16
2024-05-09T11:37:42.875Z,1009.15
2024-05-09T11:38:43.039Z,1009.18
2024-05-09T11:39:42.917Z,1009.22
2024-05-09T11:40:42.864Z,1009.16
2024-05-09T11:41:42.906Z,1009.11
2024-05-09T11:42:42.818Z,1009.08
2024-05-09T11:43:42.785Z,1009.08
2024-05-09T11:44:42.815Z,1009.07
2024-05-09T11:45:42.854Z,1009.10
2024-05-09T11:46:42.734Z,1009.12
2024-05-09T11:47:42.925Z,1009.09
2024-05-09T11:48:42.910Z,1009.13
2024-05-09T11:49:42.771Z,1009.17
2024-05-09T11:50:42.773Z,1009.13
2024-05-09T11:51:42.755Z,1009.09
2024-05-09T11:52:42.729Z,1009.05
2024-05-09T11:53:42.682Z,1009.03
2024-05-09T11:54:42.739Z,1009.01
2024-05-09T11:55:42.669Z,1008.96
2024-05-09T11:56:42.658Z,1008.95
2024-05-09T11:57:42.661Z,1008.92
2024-05-09T11:58:42.693Z,1008.93
2024-05-09T11:59:42.622Z,1008.88
2024-05-09T12:00:42.643Z,1008.86
2024-05-09T12:01:42.664Z,1008.88
2024-05-09T12:02:42.614Z,1008.91
2024-05-09T12:03:42.750Z,1008.84
2024-05-09T12:04:42.779Z,1008.84
2024-05-09T12:05:42.817Z,1008.86
2024-05-09T12:06:42.653Z,1008.86
2024-05-09T12:07:42.574Z,1008.83
2024-05-09T12:08:42.571Z,1008.82
2024-05-09T12:09:42.574Z,1008.83